Time;durP1;ratioP1;P1;durP2;ratioP2;P2;SDS_P1;SDS_P2;PMS_P1;PMS_P2;Temp;Humidity;BMP_temperature;BMP_pressure;BME280_temperature;BME280_humidity;BME280_pressure;Samples;Min_cycle;Max_cycle;Signal;HPM_P1;HPM_P2
2022/07/02 00:00:50;;;;;;;2.95;1.80;;;;;;;;;;5012234;28;20132;-81
2022/07/02 00:03:16;;;;;;;4.32;1.60;;;;;;;;;;5012723;28;20489;-81
2022/07/02 00:05:47;;;;;;;3.83;2.00;;;;;;;;;;5011664;28;20521;-80
2022/07/02 00:08:13;;;;;;;6.40;2.10;;;;;;;;;;5012315;28;20393;-81
2022/07/02 00:10:39;;;;;;;3.45;1.75;;;;;;;;;;5010579;28;20045;-81
2022/07/02 00:13:06;;;;;;;2.70;1.83;;;;;;;;;;5001599;28;20121;-80
2022/07/02 00:15:33;;;;;;;6.57;1.98;;;;;;;;;;4992490;28;20081;-81
2022/07/02 00:17:59;;;;;;;4.55;1.80;;;;;;;;;;4994607;28;20057;-81
2022/07/02 00:20:26;;;;;;;4.50;1.90;;;;;;;;;;4991854;28;20498;-81
2022/07/02 00:22:53;;;;;;;3.42;1.80;;;;;;;;;;5005499;28;20522;-81
2022/07/02 00:25:19;;;;;;;4.45;1.70;;;;;;;;;;4992836;28;20054;-81
2022/07/02 00:27:45;;;;;;;4.80;1.70;;;;;;;;;;5001663;28;20049;-81
2022/07/02 00:30:14;;;;;;;4.35;1.55;;;;;;;;;;5011837;28;20049;-81
2022/07/02 00:32:42;;;;;;;4.10;1.80;;;;;;;;;;5002973;28;20092;-82
2022/07/02 00:35:09;;;;;;;3.03;1.60;;;;;;;;;;5008125;28;20129;-81
2022/07/02 00:37:39;;;;;;;5.68;1.60;;;;;;;;;;5008346;28;20094;-81
2022/07/02 00:40:06;;;;;;;4.47;1.88;;;;;;;;;;4991527;28;20057;-81
2022/07/02 00:42:34;;;;;;;3.17;1.75;;;;;;;;;;4992755;28;20057;-81
2022/07/02 00:45:00;;;;;;;2.33;1.58;;;;;;;;;;4992779;28;20049;-80
2022/07/02 00:47:27;;;;;;;5.78;1.50;;;;;;;;;;4992525;28;20077;-80
2022/07/02 00:49:53;;;;;;;4.63;1.60;;;;;;;;;;4993025;28;20058;-80
2022/07/02 00:52:19;;;;;;;3.80;1.60;;;;;;;;;;4997913;28;20034;-81
2022/07/02 00:54:46;;;;;;;3.15;1.73;;;;;;;;;;5011804;28;20437;-81
2022/07/02 00:57:12;;;;;;;2.13;1.40;;;;;;;;;;5005038;28;20101;-81
2022/07/02 00:59:39;;;;;;;2.53;1.45;;;;;;;;;;4992131;28;20048;-81
2022/07/02 01:02:06;;;;;;;3.92;1.50;;;;;;;;;;4991599;28;20051;-81
2022/07/02 01:04:33;;;;;;;2.83;1.48;;;;;;;;;;4993819;28;20053;-81
2022/07/02 01:07:02;;;;;;;5.60;1.63;;;;;;;;;;4992342;28;20426;-80
2022/07/02 01:12:15;;;;;;;3.58;1.50;;;;;;;;;;5012516;28;20496;-81
2022/07/02 01:14:41;;;;;;;4.28;1.65;;;;;;;;;;5011062;28;20071;-81
2022/07/02 01:17:07;;;;;;;3.78;1.63;;;;;;;;;;5011991;28;20172;-81
2022/07/02 01:19:33;;;;;;;4.95;2.00;;;;;;;;;;5012339;28;20218;-81
2022/07/02 01:22:08;;;;;;;2.70;1.60;;;;;;;;;;5007124;28;20058;-80
2022/07/02 01:24:34;;;;;;;4.03;1.67;;;;;;;;;;4992506;28;20524;-80
2022/07/02 01:27:01;;;;;;;2.72;1.60;;;;;;;;;;4997314;28;20042;-81
2022/07/02 01:29:27;;;;;;;6.03;1.80;;;;;;;;;;5010637;28;20474;-80
2022/07/02 01:31:53;;;;;;;3.80;1.50;;;;;;;;;;5009006;28;20280;-81
2022/07/02 01:34:19;;;;;;;5.72;1.67;;;;;;;;;;5012040;28;20050;-81
2022/07/02 01:36:45;;;;;;;3.15;1.50;;;;;;;;;;5009351;28;20060;-80
2022/07/02 01:39:11;;;;;;;3.55;1.73;;;;;;;;;;5010743;28;20061;-81
2022/07/02 01:41:40;;;;;;;4.03;1.80;;;;;;;;;;5012024;28;20042;-81
2022/07/02 01:44:09;;;;;;;1.80;1.50;;;;;;;;;;5011596;28;20049;-81
2022/07/02 01:46:35;;;;;;;3.30;1.60;;;;;;;;;;5010126;28;20053;-81
2022/07/02 01:49:02;;;;;;;6.03;1.70;;;;;;;;;;5010439;28;20041;-81
2022/07/02 01:51:28;;;;;;;3.80;1.50;;;;;;;;;;5007022;28;20104;-80
2022/07/02 01:53:54;;;;;;;3.55;1.77;;;;;;;;;;4996196;28;20054;-80
2022/07/02 01:56:20;;;;;;;4.15;1.60;;;;;;;;;;4994489;28;20074;-81
2022/07/02 01:58:46;;;;;;;4.05;2.00;;;;;;;;;;5009784;28;20046;-81
2022/07/02 02:01:12;;;;;;;4.20;1.98;;;;;;;;;;5012189;28;20100;-81
2022/07/02 02:03:38;;;;;;;3.17;1.83;;;;;;;;;;5010498;28;20045;-81
2022/07/02 02:06:04;;;;;;;5.78;2.03;;;;;;;;;;5009792;28;20069;-81
2022/07/02 02:08:31;;;;;;;5.88;2.03;;;;;;;;;;5012260;28;20042;-81
2022/07/02 02:10:57;;;;;;;3.28;1.60;;;;;;;;;;5011086;28;20049;-80
2022/07/02 02:13:23;;;;;;;4.18;1.88;;;;;;;;;;5008996;28;20439;-81
2022/07/02 02:15:49;;;;;;;5.10;1.80;;;;;;;;;;5012050;28;20107;-81
2022/07/02 02:18:15;;;;;;;2.53;1.70;;;;;;;;;;5011158;28;20050;-81
2022/07/02 02:20:41;;;;;;;6.38;1.83;;;;;;;;;;4994862;28;20062;-81
2022/07/02 02:23:07;;;;;;;5.30;1.95;;;;;;;;;;5007137;28;20042;-81
2022/07/02 02:25:33;;;;;;;3.67;1.70;;;;;;;;;;4993613;28;20053;-80
2022/07/02 02:28:00;;;;;;;7.47;1.90;;;;;;;;;;5014545;28;20398;-80
2022/07/02 02:30:26;;;;;;;4.53;1.98;;;;;;;;;;5013871;28;20050;-81
2022/07/02 02:32:52;;;;;;;4.68;1.85;;;;;;;;;;4994061;28;20441;-81
2022/07/02 02:35:18;;;;;;;3.72;1.70;;;;;;;;;;5010654;28;20045;-80
2022/07/02 02:37:44;;;;;;;3.80;1.90;;;;;;;;;;5013394;28;20050;-81
2022/07/02 02:40:10;;;;;;;4.90;1.80;;;;;;;;;;5013574;28;20050;-81
2022/07/02 02:42:36;;;;;;;5.65;2.05;;;;;;;;;;5014630;28;20134;-81
2022/07/02 02:45:03;;;;;;;4.13;1.80;;;;;;;;;;5013576;28;20137;-81
2022/07/02 02:47:29;;;;;;;4.45;2.05;;;;;;;;;;5013295;28;20050;-81
2022/07/02 02:49:55;;;;;;;4.43;1.70;;;;;;;;;;5002444;28;20043;-80
2022/07/02 02:52:21;;;;;;;3.70;1.70;;;;;;;;;;5006472;28;20133;-81
2022/07/02 02:54:47;;;;;;;4.82;1.88;;;;;;;;;;5002865;28;20136;-80
2022/07/02 02:57:13;;;;;;;3.78;1.80;;;;;;;;;;5013708;28;20046;-81
2022/07/02 02:59:40;;;;;;;3.00;1.63;;;;;;;;;;5013289;28;20367;-82
2022/07/02 03:02:06;;;;;;;2.53;1.42;;;;;;;;;;5012980;28;20042;-80
2022/07/02 03:04:32;;;;;;;5.95;1.95;;;;;;;;;;5014658;28;20050;-81
2022/07/02 03:06:58;;;;;;;3.13;1.88;;;;;;;;;;5015077;28;20060;-80
2022/07/02 03:09:24;;;;;;;3.00;1.92;;;;;;;;;;5013572;28;20042;-81
2022/07/02 03:11:50;;;;;;;4.32;1.70;;;;;;;;;;5014863;28;20548;-81
2022/07/02 03:14:16;;;;;;;5.32;2.40;;;;;;;;;;5012961;28;20049;-81
2022/07/02 03:16:42;;;;;;;3.42;1.80;;;;;;;;;;5012548;28;20050;-81
2022/07/02 03:19:08;;;;;;;7.07;1.90;;;;;;;;;;5014314;28;20048;-81
2022/07/02 03:21:34;;;;;;;7.00;1.80;;;;;;;;;;5008861;28;20068;-78
2022/07/02 03:24:00;;;;;;;5.10;2.55;;;;;;;;;;5002082;28;20050;-80
2022/07/02 03:26:26;;;;;;;3.60;1.88;;;;;;;;;;4993943;28;20505;-81
2022/07/02 03:28:52;;;;;;;4.72;2.05;;;;;;;;;;5010787;28;20053;-80
2022/07/02 03:31:18;;;;;;;4.63;1.73;;;;;;;;;;5004088;28;20053;-80
2022/07/02 03:33:44;;;;;;;6.45;2.00;;;;;;;;;;5011364;28;20061;-81
2022/07/02 03:36:11;;;;;;;3.95;2.05;;;;;;;;;;5012436;28;20481;-80
2022/07/02 03:38:38;;;;;;;5.43;1.92;;;;;;;;;;5013697;28;20528;-81
2022/07/02 03:41:06;;;;;;;7.68;2.20;;;;;;;;;;5012594;28;20441;-81
2022/07/02 03:43:32;;;;;;;4.95;2.30;;;;;;;;;;5013086;28;20500;-79
2022/07/02 03:45:58;;;;;;;3.85;2.00;;;;;;;;;;5014062;28;20053;-80
2022/07/02 03:48:24;;;;;;;6.85;2.00;;;;;;;;;;5012595;28;20052;-81
2022/07/02 03:50:50;;;;;;;4.80;2.05;;;;;;;;;;5009309;28;20041;-81
2022/07/02 03:53:17;;;;;;;4.82;2.25;;;;;;;;;;5004288;28;20504;-81
2022/07/02 03:55:43;;;;;;;5.03;2.17;;;;;;;;;;5013886;28;20046;-81
2022/07/02 03:58:09;;;;;;;7.38;1.98;;;;;;;;;;4998805;28;20065;-81
2022/07/02 04:00:35;;;;;;;5.22;2.10;;;;;;;;;;4994057;28;20054;-80
2022/07/02 04:03:01;;;;;;;3.13;2.00;;;;;;;;;;4992210;28;20125;-81
2022/07/02 04:05:27;;;;;;;4.20;1.90;;;;;;;;;;4991369;28;20121;-81
2022/07/02 04:07:53;;;;;;;4.70;2.30;;;;;;;;;;4994055;28;20530;-80
2022/07/02 04:10:19;;;;;;;3.75;1.95;;;;;;;;;;4994065;28;20125;-82
2022/07/02 04:12:45;;;;;;;4.95;2.00;;;;;;;;;;4993002;28;20061;-81
2022/07/02 04:15:11;;;;;;;4.68;1.90;;;;;;;;;;5009942;28;20501;-81
2022/07/02 04:17:37;;;;;;;3.55;1.95;;;;;;;;;;5011775;28;20053;-81
2022/07/02 04:20:04;;;;;;;4.53;1.90;;;;;;;;;;5009020;28;20058;-81
2022/07/02 04:22:33;;;;;;;5.38;2.22;;;;;;;;;;4992591;28;20101;-80
2022/07/02 04:24:59;;;;;;;3.78;1.85;;;;;;;;;;5000746;28;20583;-81
2022/07/02 04:27:25;;;;;;;4.28;2.00;;;;;;;;;;4992647;28;20050;-81
2022/07/02 04:29:51;;;;;;;4.63;2.05;;;;;;;;;;5009844;28;20046;-81
2022/07/02 04:32:17;;;;;;;8.48;2.38;;;;;;;;;;5012292;28;20060;-81
2022/07/02 04:34:43;;;;;;;5.45;2.30;;;;;;;;;;4993010;28;20536;-81
2022/07/02 04:37:09;;;;;;;4.15;1.90;;;;;;;;;;4999848;28;21036;-81
2022/07/02 04:39:35;;;;;;;4.00;2.00;;;;;;;;;;5007443;28;20049;-81
2022/07/02 04:42:01;;;;;;;6.15;2.13;;;;;;;;;;5010584;28;20041;-81
2022/07/02 04:44:27;;;;;;;6.07;2.15;;;;;;;;;;4993852;28;20088;-81
2022/07/02 04:46:55;;;;;;;5.63;2.17;;;;;;;;;;4992242;28;20398;-82
2022/07/02 04:49:21;;;;;;;5.63;2.20;;;;;;;;;;5005020;28;20133;-83
2022/07/02 04:51:47;;;;;;;5.00;2.08;;;;;;;;;;5012665;28;20050;-82
2022/07/02 04:54:13;;;;;;;5.20;1.95;;;;;;;;;;5011645;28;20057;-81
2022/07/02 04:56:39;;;;;;;6.28;2.42;;;;;;;;;;4994781;28;20046;-81
2022/07/02 04:59:05;;;;;;;7.32;2.40;;;;;;;;;;4993867;28;20085;-80
2022/07/02 05:01:31;;;;;;;6.97;2.28;;;;;;;;;;5011062;28;20109;-82
2022/07/02 05:03:57;;;;;;;7.63;2.78;;;;;;;;;;5002167;28;20055;-80
2022/07/02 05:06:23;;;;;;;6.05;2.20;;;;;;;;;;4994028;28;20506;-81
2022/07/02 05:08:50;;;;;;;4.68;2.10;;;;;;;;;;5009414;28;20057;-81
2022/07/02 05:11:18;;;;;;;7.38;2.22;;;;;;;;;;5011635;28;20053;-81
2022/07/02 05:13:44;;;;;;;8.50;2.20;;;;;;;;;;5012139;28;20057;-81
2022/07/02 05:16:10;;;;;;;9.38;2.25;;;;;;;;;;5011163;28;20054;-81
2022/07/02 05:18:36;;;;;;;5.30;2.17;;;;;;;;;;4993245;28;20504;-81
2022/07/02 05:21:02;;;;;;;7.10;2.20;;;;;;;;;;4992085;28;20383;-81
2022/07/02 05:23:28;;;;;;;6.57;2.03;;;;;;;;;;5012639;28;20056;-80
2022/07/02 05:25:54;;;;;;;6.55;2.10;;;;;;;;;;5011372;28;20412;-81
2022/07/02 05:28:20;;;;;;;4.78;2.30;;;;;;;;;;5010154;28;20049;-82
2022/07/02 05:30:46;;;;;;;3.78;1.90;;;;;;;;;;5011935;28;20375;-81
2022/07/02 05:33:12;;;;;;;7.30;2.33;;;;;;;;;;5005193;28;20038;-81
2022/07/02 05:35:38;;;;;;;8.75;2.78;;;;;;;;;;5009544;28;20412;-81
2022/07/02 05:38:04;;;;;;;7.63;2.30;;;;;;;;;;5003833;28;20046;-81
2022/07/02 05:40:30;;;;;;;6.85;2.00;;;;;;;;;;4992920;28;20351;-81
2022/07/02 05:42:56;;;;;;;5.97;2.20;;;;;;;;;;5003386;28;20038;-80
2022/07/02 05:45:22;;;;;;;4.90;2.00;;;;;;;;;;5011458;28;20054;-80
2022/07/02 05:47:48;;;;;;;6.32;2.08;;;;;;;;;;5010803;28;20046;-81
2022/07/02 05:50:14;;;;;;;6.90;2.40;;;;;;;;;;5010879;28;20042;-81
2022/07/02 05:52:40;;;;;;;3.65;2.00;;;;;;;;;;5010429;28;20452;-81
2022/07/02 05:55:07;;;;;;;8.18;2.25;;;;;;;;;;5010911;28;20125;-81
2022/07/02 05:57:33;;;;;;;6.47;2.03;;;;;;;;;;5014629;28;20049;-81
2022/07/02 06:00:03;;;;;;;6.05;2.13;;;;;;;;;;5015656;28;20038;-81
2022/07/02 06:02:29;;;;;;;5.85;1.95;;;;;;;;;;5014037;28;20061;-80
2022/07/02 06:04:55;;;;;;;5.28;2.15;;;;;;;;;;5013780;28;20052;-81
2022/07/02 06:07:39;;;;;;;5.57;2.10;;;;;;;;;;5011117;28;20045;-82
2022/07/02 06:10:06;;;;;;;6.72;2.20;;;;;;;;;;5004074;28;20539;-81
2022/07/02 06:12:32;;;;;;;7.90;2.25;;;;;;;;;;5014741;28;20056;-82
2022/07/02 06:14:58;;;;;;;5.30;2.40;;;;;;;;;;5014173;28;20054;-81
2022/07/02 06:17:24;;;;;;;5.45;2.10;;;;;;;;;;5005362;28;20061;-82
2022/07/02 06:19:51;;;;;;;7.13;2.30;;;;;;;;;;4994833;28;20089;-81
2022/07/02 06:22:17;;;;;;;3.58;2.00;;;;;;;;;;4996326;28;20046;-82
2022/07/02 06:24:45;;;;;;;6.80;2.30;;;;;;;;;;5008295;28;20052;-81
2022/07/02 06:27:11;;;;;;;4.53;2.03;;;;;;;;;;5015770;28;20077;-81
2022/07/02 06:29:37;;;;;;;5.25;2.00;;;;;;;;;;5015154;28;20045;-81
2022/07/02 06:32:04;;;;;;;5.10;1.98;;;;;;;;;;5010582;28;20042;-81
2022/07/02 06:34:30;;;;;;;4.30;2.03;;;;;;;;;;4995907;28;20050;-81
2022/07/02 06:36:56;;;;;;;7.20;2.42;;;;;;;;;;5006945;28;20069;-81
2022/07/02 06:39:22;;;;;;;8.80;2.47;;;;;;;;;;5000118;28;20096;-81
2022/07/02 06:44:46;;;;;;;4.25;2.10;;;;;;;;;;5006295;28;20089;-81
2022/07/02 06:47:13;;;;;;;6.72;2.50;;;;;;;;;;4993925;28;20391;-82
2022/07/02 06:49:39;;;;;;;6.75;2.20;;;;;;;;;;4993806;28;20053;-82
2022/07/02 06:52:11;;;;;;;3.90;2.05;;;;;;;;;;4996919;28;20468;-81
2022/07/02 06:54:38;;;;;;;7.47;2.30;;;;;;;;;;5013915;28;20073;-82
2022/07/02 06:57:04;;;;;;;7.20;2.42;;;;;;;;;;5004509;28;20057;-81
2022/07/02 06:59:30;;;;;;;5.75;1.98;;;;;;;;;;4993559;28;20085;-81
2022/07/02 07:01:56;;;;;;;7.28;2.15;;;;;;;;;;5007308;28;20076;-81
2022/07/02 07:04:22;;;;;;;6.18;2.17;;;;;;;;;;5011500;28;20164;-81
2022/07/02 07:09:14;;;;;;;6.13;2.38;;;;;;;;;;5004240;28;20405;-82
2022/07/02 07:11:40;;;;;;;4.88;1.98;;;;;;;;;;5008721;28;20081;-82
2022/07/02 07:14:06;;;;;;;6.22;2.17;;;;;;;;;;5012393;28;20092;-81
2022/07/02 07:16:32;;;;;;;5.20;2.08;;;;;;;;;;5012336;28;20463;-81
2022/07/02 07:19:04;;;;;;;9.30;2.60;;;;;;;;;;4994200;28;20054;-81
2022/07/02 07:21:30;;;;;;;4.85;1.90;;;;;;;;;;4993789;28;20062;-81
2022/07/02 07:23:56;;;;;;;7.82;2.30;;;;;;;;;;4994690;28;20058;-81
2022/07/02 07:26:23;;;;;;;3.60;2.05;;;;;;;;;;5007386;28;20081;-82
2022/07/02 07:28:51;;;;;;;5.57;2.00;;;;;;;;;;4992673;28;20450;-81
2022/07/02 07:31:20;;;;;;;3.70;1.95;;;;;;;;;;4993806;28;20046;-81
2022/07/02 07:33:52;;;;;;;5.30;2.00;;;;;;;;;;4993724;28;20054;-83
2022/07/02 07:36:19;;;;;;;10.88;5.97;;;;;;;;;;5008731;28;20049;-82
2022/07/02 07:38:49;;;;;;;5.15;2.30;;;;;;;;;;5005090;28;20133;-81
2022/07/02 07:41:15;;;;;;;5.20;2.10;;;;;;;;;;5012735;28;20050;-82
2022/07/02 07:43:41;;;;;;;3.55;2.00;;;;;;;;;;5006248;28;20057;-82
2022/07/02 07:46:07;;;;;;;7.65;1.90;;;;;;;;;;5012523;28;20050;-81
2022/07/02 07:48:34;;;;;;;5.95;2.33;;;;;;;;;;5012233;28;20136;-81
2022/07/02 07:51:00;;;;;;;4.93;2.10;;;;;;;;;;5003217;28;20452;-81
2022/07/02 07:53:26;;;;;;;4.13;2.00;;;;;;;;;;5011741;28;20188;-82
2022/07/02 07:55:53;;;;;;;8.20;2.00;;;;;;;;;;5011194;28;20081;-82
2022/07/02 07:58:19;;;;;;;4.93;2.20;;;;;;;;;;5012771;28;20053;-82
2022/07/02 08:00:46;;;;;;;5.45;2.00;;;;;;;;;;5013398;28;20139;-82
2022/07/02 08:03:14;;;;;;;7.03;2.15;;;;;;;;;;5011810;28;20128;-82
2022/07/02 08:05:40;;;;;;;4.43;2.05;;;;;;;;;;4995831;28;20046;-81
2022/07/02 08:08:07;;;;;;;4.72;1.90;;;;;;;;;;5006344;28;20049;-82
2022/07/02 08:10:33;;;;;;;6.82;2.47;;;;;;;;;;4999784;28;20112;-82
2022/07/02 08:12:59;;;;;;;6.18;2.22;;;;;;;;;;5013390;28;20126;-82
2022/07/02 08:15:26;;;;;;;5.95;2.20;;;;;;;;;;5011738;28;20382;-81
2022/07/02 08:17:53;;;;;;;4.50;2.10;;;;;;;;;;5011239;28;20100;-82
2022/07/02 08:20:19;;;;;;;4.00;2.00;;;;;;;;;;5009232;28;20097;-82
2022/07/02 08:22:46;;;;;;;4.15;2.40;;;;;;;;;;4993886;28;20050;-81
2022/07/02 08:25:14;;;;;;;4.13;2.20;;;;;;;;;;5006139;28;20054;-82
2022/07/02 08:27:41;;;;;;;3.42;1.88;;;;;;;;;;5011782;28;20042;-82
2022/07/02 08:30:07;;;;;;;5.20;2.17;;;;;;;;;;5013301;28;20441;-82
2022/07/02 08:32:33;;;;;;;4.63;2.30;;;;;;;;;;5012475;28;20455;-82
2022/07/02 08:34:59;;;;;;;4.88;2.08;;;;;;;;;;5011750;28;20046;-81
2022/07/02 08:37:26;;;;;;;5.07;2.25;;;;;;;;;;5005351;28;20041;-81
2022/07/02 08:39:52;;;;;;;3.03;1.83;;;;;;;;;;4993297;28;20050;-82
2022/07/02 08:42:25;;;;;;;5.43;2.10;;;;;;;;;;4992640;28;20091;-83
2022/07/02 08:44:51;;;;;;;;;;;;;;;;;;4993345;28;20169;-82
2022/07/02 08:47:19;;;;;;;4.72;1.85;;;;;;;;;;4991395;28;20012;-82
2022/07/02 08:49:46;;;;;;;4.03;1.90;;;;;;;;;;5009885;28;20042;-81
2022/07/02 08:52:23;;;;;;;3.30;1.75;;;;;;;;;;5010803;28;20176;-81
2022/07/02 08:54:49;;;;;;;3.17;1.70;;;;;;;;;;5012457;28;20100;-81
2022/07/02 08:57:15;;;;;;;3.55;1.70;;;;;;;;;;5011610;28;20050;-82
2022/07/02 08:59:42;;;;;;;8.00;1.98;;;;;;;;;;5010243;28;20049;-82
2022/07/02 09:02:10;;;;;;;5.15;2.22;;;;;;;;;;5011821;28;20491;-81
2022/07/02 09:04:40;;;;;;;3.58;1.50;;;;;;;;;;5011207;28;20053;-82
2022/07/02 09:07:07;;;;;;;2.72;1.30;;;;;;;;;;5006535;28;20045;-83
2022/07/02 09:09:34;;;;;;;4.18;2.15;;;;;;;;;;5011182;28;20486;-82
2022/07/02 09:12:00;;;;;;;3.40;1.33;;;;;;;;;;5011123;28;20048;-81
2022/07/02 09:14:27;;;;;;;2.78;1.20;;;;;;;;;;5010539;28;20125;-82
2022/07/02 09:16:53;;;;;;;3.20;1.20;;;;;;;;;;5006274;28;20038;-82
2022/07/02 09:19:19;;;;;;;3.08;1.30;;;;;;;;;;4991387;28;20129;-82
2022/07/02 09:21:49;;;;;;;1.55;1.30;;;;;;;;;;5000341;28;20490;-82
2022/07/02 09:24:26;;;;;;;4.15;1.27;;;;;;;;;;5011047;28;20089;-82
2022/07/02 09:26:59;;;;;;;1.75;1.10;;;;;;;;;;5012106;28;20046;-82
2022/07/02 09:29:25;;;;;;;2.67;1.35;;;;;;;;;;5011199;28;20100;-82
2022/07/02 09:31:51;;;;;;;2.10;1.20;;;;;;;;;;5010417;28;20038;-82
2022/07/02 09:34:24;;;;;;;2.67;1.25;;;;;;;;;;5007223;28;20398;-82
2022/07/02 09:36:50;;;;;;;3.03;1.40;;;;;;;;;;5005667;28;20409;-81
2022/07/02 09:39:26;;;;;;;1.55;1.02;;;;;;;;;;4999344;28;20209;-82
2022/07/02 09:41:52;;;;;;;3.75;1.40;;;;;;;;;;4996155;28;20045;-81
2022/07/02 09:44:18;;;;;;;2.33;1.20;;;;;;;;;;5012710;28;20041;-82
2022/07/02 09:46:44;;;;;;;1.67;1.23;;;;;;;;;;5011025;28;20559;-82
2022/07/02 09:49:12;;;;;;;1.98;1.20;;;;;;;;;;5010011;28;20081;-81
2022/07/02 09:51:48;;;;;;;3.55;1.40;;;;;;;;;;5008618;28;20085;-81
2022/07/02 09:54:21;;;;;;;2.00;1.38;;;;;;;;;;5009909;28;20046;-81
2022/07/02 09:56:52;;;;;;;3.90;1.58;;;;;;;;;;4991197;28;20329;-83
2022/07/02 09:59:18;;;;;;;1.17;1.10;;;;;;;;;;4993267;28;20093;-82
2022/07/02 10:01:44;;;;;;;1.77;1.38;;;;;;;;;;4991944;28;20133;-82
2022/07/02 10:04:11;;;;;;;1.67;1.10;;;;;;;;;;4991404;28;20541;-82
2022/07/02 10:06:38;;;;;;;2.05;1.20;;;;;;;;;;4994228;28;20096;-81
2022/07/02 10:09:04;;;;;;;2.03;1.40;;;;;;;;;;5006964;28;20053;-82
2022/07/02 10:11:30;;;;;;;1.35;1.25;;;;;;;;;;5009950;28;20058;-81
2022/07/02 10:13:57;;;;;;;1.50;1.40;;;;;;;;;;5009912;28;20485;-82
2022/07/02 10:16:23;;;;;;;3.00;1.20;;;;;;;;;;5009501;28;20493;-82
2022/07/02 10:18:49;;;;;;;2.22;1.40;;;;;;;;;;5011901;28;20054;-81
2022/07/02 10:21:16;;;;;;;2.53;1.83;;;;;;;;;;4999575;28;20064;-81
2022/07/02 10:23:43;;;;;;;1.42;1.20;;;;;;;;;;4989950;28;20062;-81
2022/07/02 10:26:10;;;;;;;4.72;1.33;;;;;;;;;;5010635;28;20054;-81
2022/07/02 10:28:36;;;;;;;4.80;1.35;;;;;;;;;;5010035;28;20052;-81
2022/07/02 10:31:03;;;;;;;3.17;1.40;;;;;;;;;;5010659;28;20081;-80
2022/07/02 10:33:33;;;;;;;2.25;1.15;;;;;;;;;;5010554;28;20123;-80
2022/07/02 10:36:01;;;;;;;3.53;2.47;;;;;;;;;;5009648;28;20038;-81
2022/07/02 10:38:30;;;;;;;2.40;1.27;;;;;;;;;;4998375;28;20053;-81
2022/07/02 10:40:57;;;;;;;2.10;1.25;;;;;;;;;;5011271;28;20034;-81
2022/07/02 10:43:23;;;;;;;3.08;1.50;;;;;;;;;;5015535;28;20077;-81
2022/07/02 10:45:49;;;;;;;1.85;1.20;;;;;;;;;;5013424;28;20034;-81
2022/07/02 10:48:16;;;;;;;3.53;1.30;;;;;;;;;;5015239;28;20046;-81
2022/07/02 10:50:46;;;;;;;2.67;1.60;;;;;;;;;;5015236;28;20100;-81
2022/07/02 10:53:19;;;;;;;2.45;1.33;;;;;;;;;;5013837;28;20493;-81
2022/07/02 10:55:53;;;;;;;2.05;1.50;;;;;;;;;;5014592;28;20836;-81
2022/07/02 10:58:38;;;;;;;2.33;1.35;;;;;;;;;;5015327;28;20077;-81
2022/07/02 11:01:14;;;;;;;1.52;1.25;;;;;;;;;;5013205;28;20058;-82
2022/07/02 11:03:56;;;;;;;2.63;1.40;;;;;;;;;;5013591;28;20096;-82
2022/07/02 11:06:25;;;;;;;1.85;1.30;;;;;;;;;;5009504;28;20046;-82
2022/07/02 11:08:54;;;;;;;4.00;1.42;;;;;;;;;;5004680;28;20583;-82
2022/07/02 11:11:31;;;;;;;2.05;1.20;;;;;;;;;;4995834;28;20092;-82
2022/07/02 11:14:01;;;;;;;2.45;1.30;;;;;;;;;;5011809;28;20053;-81
2022/07/02 11:16:33;;;;;;;1.75;1.20;;;;;;;;;;5012432;28;20053;-82
2022/07/02 11:18:59;;;;;;;1.70;1.40;;;;;;;;;;4995293;28;20046;-82
2022/07/02 11:21:26;;;;;;;2.22;1.30;;;;;;;;;;4993186;28;20066;-81
2022/07/02 11:23:52;;;;;;;1.80;1.35;;;;;;;;;;5010384;28;20141;-82
2022/07/02 11:26:19;;;;;;;2.80;1.27;;;;;;;;;;5014761;28;20038;-83
2022/07/02 11:28:45;;;;;;;1.77;1.20;;;;;;;;;;5010291;28;20112;-82
2022/07/02 11:31:12;;;;;;;2.17;1.40;;;;;;;;;;4994437;28;20093;-82
2022/07/02 11:33:42;;;;;;;3.95;1.40;;;;;;;;;;4994740;28;20042;-82
2022/07/02 11:36:09;;;;;;;1.45;1.10;;;;;;;;;;5010739;28;20042;-82
2022/07/02 11:38:41;;;;;;;1.70;1.23;;;;;;;;;;5004490;28;20069;-82
2022/07/02 11:41:16;;;;;;;1.30;1.20;;;;;;;;;;4993702;28;20050;-82
2022/07/02 11:43:44;;;;;;;2.25;1.40;;;;;;;;;;5007370;28;20050;-82
2022/07/02 11:46:12;;;;;;;1.52;1.15;;;;;;;;;;5012591;28;20088;-82
2022/07/02 11:48:38;;;;;;;1.70;1.23;;;;;;;;;;5012892;28;20490;-81
2022/07/02 11:51:04;;;;;;;3.08;1.27;;;;;;;;;;5012498;28;20068;-82
2022/07/02 11:53:30;;;;;;;2.15;1.50;;;;;;;;;;5004608;28;20177;-82
2022/07/02 11:56:06;;;;;;;1.48;1.27;;;;;;;;;;4992889;28;20050;-81
2022/07/02 11:58:42;;;;;;;4.85;1.80;;;;;;;;;;4994459;28;20394;-82
2022/07/02 12:01:27;;;;;;;2.05;1.30;;;;;;;;;;4994161;28;20506;-82
2022/07/02 12:03:55;;;;;;;2.22;1.50;;;;;;;;;;4994028;28;20124;-82
2022/07/02 12:06:21;;;;;;;1.60;1.42;;;;;;;;;;4995561;28;20053;-82
2022/07/02 12:08:50;;;;;;;2.50;1.40;;;;;;;;;;5003789;28;20081;-81
2022/07/02 12:11:17;;;;;;;2.10;1.30;;;;;;;;;;4992448;28;20104;-83
2022/07/02 12:13:44;;;;;;;2.72;1.40;;;;;;;;;;4996502;28;20181;-82
2022/07/02 12:16:12;;;;;;;4.78;1.90;;;;;;;;;;4993249;28;20133;-83
2022/07/02 12:18:39;;;;;;;5.35;1.50;;;;;;;;;;4994539;28;20458;-82
2022/07/02 12:21:12;;;;;;;2.25;1.25;;;;;;;;;;4992176;28;20080;-81
2022/07/02 12:23:46;;;;;;;5.13;1.40;;;;;;;;;;4993804;28;20398;-82
2022/07/02 12:26:18;;;;;;;3.38;1.60;;;;;;;;;;5011380;28;20052;-82
2022/07/02 12:31:41;;;;;;;4.68;1.52;;;;;;;;;;4992870;28;20058;-82
2022/07/02 12:34:07;;;;;;;3.47;1.60;;;;;;;;;;4993161;28;20046;-81
2022/07/02 12:36:43;;;;;;;5.28;1.55;;;;;;;;;;4997547;28;20053;-81
2022/07/02 12:39:09;;;;;;;2.72;1.45;;;;;;;;;;5004386;28;20076;-82
2022/07/02 12:41:39;;;;;;;3.83;1.50;;;;;;;;;;5012854;28;20046;-81
2022/07/02 12:44:05;;;;;;;1.40;1.27;;;;;;;;;;4993815;28;20553;-82
2022/07/02 12:46:31;;;;;;;4.22;1.40;;;;;;;;;;5002956;28;20157;-82
2022/07/02 12:48:57;;;;;;;1.48;1.38;;;;;;;;;;5012849;28;20133;-81
2022/07/02 12:51:23;;;;;;;3.17;1.40;;;;;;;;;;5012205;28;20064;-83
2022/07/02 12:53:58;;;;;;;1.75;1.30;;;;;;;;;;5011640;28;20484;-81
2022/07/02 12:56:24;;;;;;;2.20;1.48;;;;;;;;;;5006332;28;20053;-82
2022/07/02 12:58:51;;;;;;;1.40;1.20;;;;;;;;;;5010011;28;20046;-82
2022/07/02 13:01:17;;;;;;;1.55;1.33;;;;;;;;;;5011537;28;20061;-82
2022/07/02 13:03:43;;;;;;;2.03;1.20;;;;;;;;;;5010560;28;20042;-81
2022/07/02 13:06:09;;;;;;;2.40;1.40;;;;;;;;;;5007725;28;20089;-82
2022/07/02 13:08:35;;;;;;;2.88;1.25;;;;;;;;;;5003835;28;20058;-81
2022/07/02 13:11:03;;;;;;;2.05;1.20;;;;;;;;;;5000003;28;20046;-82
2022/07/02 13:13:29;;;;;;;2.33;1.20;;;;;;;;;;5012104;28;20058;-82
2022/07/02 13:15:55;;;;;;;2.03;1.33;;;;;;;;;;5010811;28;20347;-82
2022/07/02 13:18:21;;;;;;;2.58;1.20;;;;;;;;;;4995936;28;20046;-82
2022/07/02 13:20:47;;;;;;;2.15;1.25;;;;;;;;;;4991990;28;20090;-81
2022/07/02 13:23:13;;;;;;;1.35;1.20;;;;;;;;;;5009421;28;20049;-82
2022/07/02 13:25:39;;;;;;;2.38;1.33;;;;;;;;;;5012411;28;20042;-82
2022/07/02 13:28:06;;;;;;;2.60;1.45;;;;;;;;;;5011587;28;20049;-81
2022/07/02 13:30:32;;;;;;;1.35;1.20;;;;;;;;;;5010637;28;20046;-82
2022/07/02 13:32:58;;;;;;;2.38;1.23;;;;;;;;;;5012594;28;20403;-82
2022/07/02 13:35:24;;;;;;;3.47;1.48;;;;;;;;;;5010461;28;20077;-82
2022/07/02 13:37:50;;;;;;;3.15;1.50;;;;;;;;;;5008276;28;20077;-82
2022/07/02 13:40:17;;;;;;;1.25;1.15;;;;;;;;;;5011975;28;20048;-82
2022/07/02 13:42:43;;;;;;;2.28;1.20;;;;;;;;;;5011703;28;20049;-82
2022/07/02 13:45:10;;;;;;;2.00;1.10;;;;;;;;;;5012555;28;20052;-82
2022/07/02 13:47:36;;;;;;;1.90;1.80;;;;;;;;;;5010752;28;20512;-82
2022/07/02 13:50:03;;;;;;;3.53;1.70;;;;;;;;;;5010734;28;20041;-82
2022/07/02 13:52:29;;;;;;;2.08;1.30;;;;;;;;;;5011116;28;20136;-81
2022/07/02 13:54:57;;;;;;;1.50;1.05;;;;;;;;;;5004889;28;20162;-81
2022/07/02 13:57:23;;;;;;;1.77;1.20;;;;;;;;;;4992774;28;20097;-81
2022/07/02 13:59:49;;;;;;;1.20;1.10;;;;;;;;;;4996154;28;20053;-82
2022/07/02 14:02:15;;;;;;;3.53;1.35;;;;;;;;;;5011143;28;20540;-81
2022/07/02 14:04:42;;;;;;;3.35;1.23;;;;;;;;;;4999732;28;20061;-81
2022/07/02 14:07:08;;;;;;;3.10;1.38;;;;;;;;;;4997107;28;20540;-82
2022/07/02 14:09:35;;;;;;;2.03;1.10;;;;;;;;;;5008512;28;20050;-82
2022/07/02 14:12:04;;;;;;;2.97;1.33;;;;;;;;;;5011424;28;20050;-82
2022/07/02 14:14:30;;;;;;;1.75;1.27;;;;;;;;;;4990974;28;20112;-81
2022/07/02 14:16:56;;;;;;;2.22;1.25;;;;;;;;;;4996575;28;20119;-82
2022/07/02 14:19:22;;;;;;;1.20;1.15;;;;;;;;;;5015974;28;20464;-82
2022/07/02 14:21:48;;;;;;;3.13;1.30;;;;;;;;;;5014242;28;20057;-82
2022/07/02 14:24:14;;;;;;;1.63;1.33;;;;;;;;;;5012092;28;20100;-82
2022/07/02 14:26:40;;;;;;;1.38;1.20;;;;;;;;;;5014459;28;20045;-82
2022/07/02 14:29:06;;;;;;;3.03;1.27;;;;;;;;;;5012085;28;20042;-82
2022/07/02 14:31:32;;;;;;;1.58;1.30;;;;;;;;;;4993728;28;20153;-82
2022/07/02 14:33:58;;;;;;;1.77;1.20;;;;;;;;;;4996328;28;20054;-82
2022/07/02 14:36:24;;;;;;;1.40;1.30;;;;;;;;;;5000290;28;20056;-82
2022/07/02 14:38:50;;;;;;;1.67;1.20;;;;;;;;;;5002046;28;20046;-81
2022/07/02 14:41:32;;;;;;;2.22;1.30;;;;;;;;;;5015141;28;20046;-82
2022/07/02 14:43:58;;;;;;;3.35;1.15;;;;;;;;;;5015196;28;20179;-82
2022/07/02 14:46:30;;;;;;;1.40;1.10;;;;;;;;;;5014820;28;20083;-83
2022/07/02 14:48:59;;;;;;;1.95;1.20;;;;;;;;;;5013157;28;20518;-81
2022/07/02 14:51:26;;;;;;;1.77;1.17;;;;;;;;;;4993986;28;20519;-82
2022/07/02 14:53:52;;;;;;;1.60;1.20;;;;;;;;;;4994420;28;20414;-81